Barrytown, New York
Current Conditions -  °F | °C
As of 2:53 AM on Friday 21 Nov 2014 (Local Time) from KPOU Reporting Station
Clear Clear  
Wind Chill: 19°   Ceiling: Unl
Heat Index: 27°   Visibility: 10mi
Dew Point:   Wind: 7mph
Humidity: 45%   Direction: 250°WSW
Pressure: 30.05"   Gusts: NA
Location:  42°N, 73.92°W
Report Text: KPOU 210753Z AUTO 25006KT 10SM CLR M03/M13 A3005 RMK AO2 SLP173 T10281133 TSNO
Loading
Personal Weather Stations






























Interactive Weather Map New forecast layout! Learn more

10-Day Weather Forecast

Advertisements
Track Severe Weather on mobile